sensor_id;sensor_type;location;lat;lon;timestamp;pressure;altitude;pressure_sealevel;temperature;humidity
66762;BME280;53672;48.176;16.338;2022-12-18T00:01:35;100609.22;;;-1.09;77.40
66762;BME280;53672;48.176;16.338;2022-12-18T00:06:37;100606.75;;;-1.11;76.27
66762;BME280;53672;48.176;16.338;2022-12-18T00:11:37;100617.34;;;-1.11;76.92
66762;BME280;53672;48.176;16.338;2022-12-18T00:16:38;100627.28;;;-1.21;76.10
66762;BME280;53672;48.176;16.338;2022-12-18T00:21:42;100631.38;;;-1.26;77.98
66762;BME280;53672;48.176;16.338;2022-12-18T00:26:42;100621.69;;;-1.34;78.48
66762;BME280;53672;48.176;16.338;2022-12-18T00:31:43;100632.59;;;-1.45;78.28
66762;BME280;53672;48.176;16.338;2022-12-18T00:36:47;100641.84;;;-1.65;79.52
66762;BME280;53672;48.176;16.338;2022-12-18T00:41:47;100638.50;;;-1.83;80.66
66762;BME280;53672;48.176;16.338;2022-12-18T00:46:48;100641.13;;;-1.99;82.44
66762;BME280;53672;48.176;16.338;2022-12-18T00:51:50;100641.06;;;-2.16;84.31
66762;BME280;53672;48.176;16.338;2022-12-18T00:56:50;100649.47;;;-2.28;83.07
66762;BME280;53672;48.176;16.338;2022-12-18T01:01:51;100651.59;;;-2.40;82.50
66762;BME280;53672;48.176;16.338;2022-12-18T01:06:53;100657.47;;;-2.54;81.12
66762;BME280;53672;48.176;16.338;2022-12-18T01:11:53;100664.50;;;-2.63;82.79
66762;BME280;53672;48.176;16.338;2022-12-18T01:16:54;100676.84;;;-2.71;82.87
66762;BME280;53672;48.176;16.338;2022-12-18T01:21:56;100667.72;;;-2.77;82.52
66762;BME280;53672;48.176;16.338;2022-12-18T01:26:56;100674.47;;;-2.82;84.27
66762;BME280;53672;48.176;16.338;2022-12-18T01:31:57;100677.53;;;-2.95;84.95
66762;BME280;53672;48.176;16.338;2022-12-18T01:37:02;100681.06;;;-3.04;85.49
66762;BME280;53672;48.176;16.338;2022-12-18T01:42:05;100676.75;;;-3.13;86.11
66762;BME280;53672;48.176;16.338;2022-12-18T01:47:09;100682.31;;;-3.16;87.09
66762;BME280;53672;48.176;16.338;2022-12-18T01:52:14;100690.31;;;-3.26;87.19
66762;BME280;53672;48.176;16.338;2022-12-18T01:57:16;100692.97;;;-3.26;87.22
66762;BME280;53672;48.176;16.338;2022-12-18T02:02:17;100696.88;;;-3.30;87.52
66762;BME280;53672;48.176;16.338;2022-12-18T02:07:25;100696.97;;;-3.39;87.55
66762;BME280;53672;48.176;16.338;2022-12-18T02:12:35;100699.75;;;-3.41;87.97
66762;BME280;53672;48.176;16.338;2022-12-18T02:17:43;100708.94;;;-3.45;89.35
66762;BME280;53672;48.176;16.338;2022-12-18T02:23:04;100710.81;;;-3.55;90.12
66762;BME280;53672;48.176;16.338;2022-12-18T02:28:12;100715.94;;;-3.53;90.34
66762;BME280;53672;48.176;16.338;2022-12-18T02:33:14;100712.69;;;-3.65;89.10
66762;BME280;53672;48.176;16.338;2022-12-18T02:38:16;100723.63;;;-3.60;90.88
66762;BME280;53672;48.176;16.338;2022-12-18T02:43:18;100725.50;;;-3.70;90.14
66762;BME280;53672;48.176;16.338;2022-12-18T02:48:23;100726.06;;;-3.76;90.85
66762;BME280;53672;48.176;16.338;2022-12-18T02:53:29;100735.56;;;-3.83;90.70
66762;BME280;53672;48.176;16.338;2022-12-18T02:58:40;100748.03;;;-3.85;90.48
66762;BME280;53672;48.176;16.338;2022-12-18T03:03:47;100752.91;;;-3.90;90.52
66762;BME280;53672;48.176;16.338;2022-12-18T03:08:56;100750.44;;;-3.92;91.07
66762;BME280;53672;48.176;16.338;2022-12-18T03:13:59;100755.19;;;-3.95;90.72
66762;BME280;53672;48.176;16.338;2022-12-18T03:19:03;100745.91;;;-3.99;91.13
66762;BME280;53672;48.176;16.338;2022-12-18T03:24:07;100747.88;;;-4.01;91.47
66762;BME280;53672;48.176;16.338;2022-12-18T03:29:17;100754.53;;;-4.07;91.55
66762;BME280;53672;48.176;16.338;2022-12-18T03:34:22;100743.75;;;-4.14;91.51
66762;BME280;53672;48.176;16.338;2022-12-18T03:39:24;100760.16;;;-4.20;91.76
66762;BME280;53672;48.176;16.338;2022-12-18T03:44:29;100756.97;;;-4.23;91.78
66762;BME280;53672;48.176;16.338;2022-12-18T03:49:35;100759.59;;;-4.23;91.95
66762;BME280;53672;48.176;16.338;2022-12-18T03:54:37;100762.97;;;-4.31;91.51
66762;BME280;53672;48.176;16.338;2022-12-18T03:59:40;100779.47;;;-4.38;91.57
66762;BME280;53672;48.176;16.338;2022-12-18T04:04:43;100774.34;;;-4.40;92.53
66762;BME280;53672;48.176;16.338;2022-12-18T04:09:45;100771.44;;;-4.37;91.43
66762;BME280;53672;48.176;16.338;2022-12-18T04:14:47;100796.91;;;-4.37;91.81
66762;BME280;53672;48.176;16.338;2022-12-18T04:19:48;100785.84;;;-4.41;92.12
66762;BME280;53672;48.176;16.338;2022-12-18T04:24:48;100796.13;;;-4.47;91.96
66762;BME280;53672;48.176;16.338;2022-12-18T04:29:50;100799.03;;;-4.50;92.85
66762;BME280;53672;48.176;16.338;2022-12-18T04:34:51;100810.69;;;-4.53;93.58
66762;BME280;53672;48.176;16.338;2022-12-18T04:39:51;100816.78;;;-4.52;94.62
66762;BME280;53672;48.176;16.338;2022-12-18T04:44:53;100823.84;;;-4.53;95.07
66762;BME280;53672;48.176;16.338;2022-12-18T04:49:53;100823.84;;;-4.53;95.10
66762;BME280;53672;48.176;16.338;2022-12-18T04:54:54;100823.13;;;-4.55;95.34
66762;BME280;53672;48.176;16.338;2022-12-18T04:59:56;100828.41;;;-4.65;95.69
66762;BME280;53672;48.176;16.338;2022-12-18T05:04:56;100833.69;;;-4.74;95.91
66762;BME280;53672;48.176;16.338;2022-12-18T05:09:57;100847.13;;;-4.77;96.47
66762;BME280;53672;48.176;16.338;2022-12-18T05:14:59;100858.31;;;-4.85;96.70
66762;BME280;53672;48.176;16.338;2022-12-18T05:19:59;100860.56;;;-4.90;97.36
66762;BME280;53672;48.176;16.338;2022-12-18T05:25:00;100862.19;;;-4.98;97.33
66762;BME280;53672;48.176;16.338;2022-12-18T05:30:02;100853.75;;;-5.02;97.67
66762;BME280;53672;48.176;16.338;2022-12-18T05:35:03;100862.75;;;-5.14;97.48
66762;BME280;53672;48.176;16.338;2022-12-18T05:40:05;100866.19;;;-5.23;98.11
66762;BME280;53672;48.176;16.338;2022-12-18T05:45:08;100866.34;;;-5.25;99.03
66762;BME280;53672;48.176;16.338;2022-12-18T05:50:08;100865.50;;;-5.25;99.51
66762;BME280;53672;48.176;16.338;2022-12-18T05:55:09;100869.25;;;-5.28;99.67
66762;BME280;53672;48.176;16.338;2022-12-18T06:00:12;100874.22;;;-5.34;99.87
66762;BME280;53672;48.176;16.338;2022-12-18T06:05:13;100874.47;;;-5.37;100.00
66762;BME280;53672;48.176;16.338;2022-12-18T06:10:14;100887.31;;;-5.44;100.00
66762;BME280;53672;48.176;16.338;2022-12-18T06:15:16;100895.44;;;-5.47;100.00
66762;BME280;53672;48.176;16.338;2022-12-18T06:20:16;100898.34;;;-5.50;99.76
66762;BME280;53672;48.176;16.338;2022-12-18T06:25:17;100902.66;;;-5.49;100.00
66762;BME280;53672;48.176;16.338;2022-12-18T06:30:19;100909.41;;;-5.56;100.00
66762;BME280;53672;48.176;16.338;2022-12-18T06:35:20;100913.13;;;-5.58;100.00
66762;BME280;53672;48.176;16.338;2022-12-18T06:40:20;100909.22;;;-5.64;100.00
66762;BME280;53672;48.176;16.338;2022-12-18T06:45:22;100917.25;;;-5.66;100.00
66762;BME280;53672;48.176;16.338;2022-12-18T06:50:23;100921.41;;;-5.63;100.00
66762;BME280;53672;48.176;16.338;2022-12-18T06:55:23;100932.59;;;-5.61;100.00
66762;BME280;53672;48.176;16.338;2022-12-18T07:00:25;100940.47;;;-5.61;100.00
66762;BME280;53672;48.176;16.338;2022-12-18T07:05:25;100940.38;;;-5.50;100.00
66762;BME280;53672;48.176;16.338;2022-12-18T07:10:26;100949.28;;;-5.32;100.00
66762;BME280;53672;48.176;16.338;2022-12-18T07:15:28;100961.50;;;-5.12;100.00
66762;BME280;53672;48.176;16.338;2022-12-18T07:20:28;100961.97;;;-4.87;100.00
66762;BME280;53672;48.176;16.338;2022-12-18T07:25:29;100973.06;;;-4.65;100.00
66762;BME280;53672;48.176;16.338;2022-12-18T07:30:31;100982.22;;;-4.40;99.65
66762;BME280;53672;48.176;16.338;2022-12-18T07:35:32;100994.09;;;-4.07;99.66
66762;BME280;53672;48.176;16.338;2022-12-18T07:40:33;100996.16;;;-3.82;98.05
66762;BME280;53672;48.176;16.338;2022-12-18T07:45:34;100999.25;;;-3.49;97.38
66762;BME280;53672;48.176;16.338;2022-12-18T07:50:36;101006.19;;;-3.21;95.31
66762;BME280;53672;48.176;16.338;2022-12-18T07:55:37;101022.25;;;-3.05;93.04
66762;BME280;53672;48.176;16.338;2022-12-18T08:00:38;101022.84;;;-2.93;89.79
66762;BME280;53672;48.176;16.338;2022-12-18T08:05:39;101032.97;;;-2.89;89.98
66762;BME280;53672;48.176;16.338;2022-12-18T08:10:39;101028.94;;;-2.66;89.83
66762;BME280;53672;48.176;16.338;2022-12-18T08:15:41;101030.84;;;-2.58;87.70
66762;BME280;53672;48.176;16.338;2022-12-18T08:20:42;101035.84;;;-2.55;86.95
66762;BME280;53672;48.176;16.338;2022-12-18T08:25:42;101041.63;;;-2.51;86.74
66762;BME280;53672;48.176;16.338;2022-12-18T08:30:44;101027.41;;;-2.41;87.07
66762;BME280;53672;48.176;16.338;2022-12-18T08:35:45;101028.91;;;-2.21;85.88
66762;BME280;53672;48.176;16.338;2022-12-18T08:40:45;101033.75;;;-2.16;85.33
66762;BME280;53672;48.176;16.338;2022-12-18T08:45:47;101038.25;;;-2.09;84.09
66762;BME280;53672;48.176;16.338;2022-12-18T08:50:53;101044.66;;;-2.11;84.53
66762;BME280;53672;48.176;16.338;2022-12-18T08:55:56;101055.75;;;-2.08;84.76
66762;BME280;53672;48.176;16.338;2022-12-18T09:01:01;101048.31;;;-2.30;82.84
66762;BME280;53672;48.176;16.338;2022-12-18T09:06:02;101051.69;;;-2.20;85.68
66762;BME280;53672;48.176;16.338;2022-12-18T09:11:02;101057.13;;;-2.03;85.07
66762;BME280;53672;48.176;16.338;2022-12-18T09:16:05;101064.00;;;-2.11;84.47
66762;BME280;53672;48.176;16.338;2022-12-18T09:21:10;101061.13;;;-1.99;85.61
66762;BME280;53672;48.176;16.338;2022-12-18T09:26:11;101068.06;;;-1.98;84.80
66762;BME280;53672;48.176;16.338;2022-12-18T09:31:13;101055.38;;;-1.95;83.89
66762;BME280;53672;48.176;16.338;2022-12-18T09:36:15;101047.97;;;-1.91;85.23
66762;BME280;53672;48.176;16.338;2022-12-18T09:41:29;101047.91;;;-2.17;83.33
66762;BME280;53672;48.176;16.338;2022-12-18T09:46:37;101057.75;;;-2.10;85.15
66762;BME280;53672;48.176;16.338;2022-12-18T09:51:41;101053.13;;;-2.08;83.51
66762;BME280;53672;48.176;16.338;2022-12-18T09:56:44;101060.59;;;-2.21;83.27
66762;BME280;53672;48.176;16.338;2022-12-18T10:01:46;101041.66;;;-2.16;83.29
66762;BME280;53672;48.176;16.338;2022-12-18T10:06:53;101048.38;;;-2.22;83.45
66762;BME280;53672;48.176;16.338;2022-12-18T10:12:02;101042.41;;;-2.06;84.93
66762;BME280;53672;48.176;16.338;2022-12-18T10:17:14;101036.31;;;-2.24;82.67
66762;BME280;53672;48.176;16.338;2022-12-18T10:22:25;101042.72;;;-2.27;83.14
66762;BME280;53672;48.176;16.338;2022-12-18T10:27:31;101035.81;;;-2.02;83.21
66762;BME280;53672;48.176;16.338;2022-12-18T10:32:33;101030.41;;;-2.00;84.19
66762;BME280;53672;48.176;16.338;2022-12-18T10:37:33;101034.00;;;-1.84;83.31
66762;BME280;53672;48.176;16.338;2022-12-18T10:42:34;101024.91;;;-2.07;79.82
66762;BME280;53672;48.176;16.338;2022-12-18T10:47:36;101028.81;;;-1.93;83.61
66762;BME280;53672;48.176;16.338;2022-12-18T10:52:41;101019.75;;;-1.91;81.85
66762;BME280;53672;48.176;16.338;2022-12-18T10:57:42;101022.97;;;-1.79;84.16
66762;BME280;53672;48.176;16.338;2022-12-18T11:02:44;101023.22;;;-2.26;80.90
66762;BME280;53672;48.176;16.338;2022-12-18T11:07:48;101014.63;;;-1.92;81.58
66762;BME280;53672;48.176;16.338;2022-12-18T11:12:49;101016.09;;;-2.51;81.85
66762;BME280;53672;48.176;16.338;2022-12-18T11:17:51;101009.22;;;-2.26;86.81
66762;BME280;53672;48.176;16.338;2022-12-18T11:22:56;101003.16;;;-2.01;83.03
66762;BME280;53672;48.176;16.338;2022-12-18T11:27:59;101017.06;;;-1.73;80.67
66762;BME280;53672;48.176;16.338;2022-12-18T11:33:04;101014.78;;;-1.42;80.25
66762;BME280;53672;48.176;16.338;2022-12-18T11:38:12;101013.28;;;-1.96;78.76
66762;BME280;53672;48.176;16.338;2022-12-18T11:43:23;101007.75;;;-1.85;82.54
66762;BME280;53672;48.176;16.338;2022-12-18T11:48:28;100994.84;;;-1.63;84.56
66762;BME280;53672;48.176;16.338;2022-12-18T11:53:30;100990.84;;;-1.92;79.88
66762;BME280;53672;48.176;16.338;2022-12-18T11:58:46;100994.56;;;-1.77;81.88
66762;BME280;53672;48.176;16.338;2022-12-18T12:04:11;100989.41;;;-2.05;81.61
66762;BME280;53672;48.176;16.338;2022-12-18T12:09:20;100990.97;;;-2.20;80.24
66762;BME280;53672;48.176;16.338;2022-12-18T12:14:38;100989.22;;;-2.11;82.76
66762;BME280;53672;48.176;16.338;2022-12-18T12:19:49;100989.50;;;-1.71;85.73
66762;BME280;53672;48.176;16.338;2022-12-18T12:25:02;100975.41;;;-1.79;80.54
66762;BME280;53672;48.176;16.338;2022-12-18T12:30:10;100984.50;;;-1.82;81.76
66762;BME280;53672;48.176;16.338;2022-12-18T12:35:30;100978.88;;;-1.79;81.56
66762;BME280;53672;48.176;16.338;2022-12-18T12:40:35;100973.44;;;-1.77;82.05
66762;BME280;53672;48.176;16.338;2022-12-18T12:45:40;100964.56;;;-2.20;81.03
66762;BME280;53672;48.176;16.338;2022-12-18T12:50:45;100959.00;;;-2.09;82.07
66762;BME280;53672;48.176;16.338;2022-12-18T12:55:46;100968.78;;;-1.83;82.94
66762;BME280;53672;48.176;16.338;2022-12-18T13:00:53;100971.97;;;-1.97;82.95
66762;BME280;53672;48.176;16.338;2022-12-18T13:06:01;100982.13;;;-2.11;82.00
66762;BME280;53672;48.176;16.338;2022-12-18T13:11:03;100988.91;;;-2.08;83.69
66762;BME280;53672;48.176;16.338;2022-12-18T13:16:25;100992.00;;;-2.13;85.01
66762;BME280;53672;48.176;16.338;2022-12-18T13:21:29;100998.50;;;-2.07;85.09
66762;BME280;53672;48.176;16.338;2022-12-18T13:26:32;101001.56;;;-2.12;83.09
66762;BME280;53672;48.176;16.338;2022-12-18T13:37:41;100992.47;;;-2.17;84.75
66762;BME280;53672;48.176;16.338;2022-12-18T13:42:41;100996.59;;;-2.15;85.62
66762;BME280;53672;48.176;16.338;2022-12-18T13:47:43;100999.41;;;-2.16;84.93
66762;BME280;53672;48.176;16.338;2022-12-18T13:52:45;101002.19;;;-2.18;85.75
66762;BME280;53672;48.176;16.338;2022-12-18T13:57:45;101005.13;;;-2.21;85.05
66762;BME280;53672;48.176;16.338;2022-12-18T14:02:46;101008.69;;;-2.30;86.89
66762;BME280;53672;48.176;16.338;2022-12-18T14:07:48;101020.44;;;-2.42;85.72
66762;BME280;53672;48.176;16.338;2022-12-18T14:12:49;101015.47;;;-2.45;86.62
66762;BME280;53672;48.176;16.338;2022-12-18T14:17:51;101016.31;;;-2.44;86.35
66762;BME280;53672;48.176;16.338;2022-12-18T14:22:57;101016.00;;;-2.41;86.51
66762;BME280;53672;48.176;16.338;2022-12-18T14:28:07;101033.34;;;-2.39;87.38
66762;BME280;53672;48.176;16.338;2022-12-18T14:33:14;101040.16;;;-2.36;88.21
66762;BME280;53672;48.176;16.338;2022-12-18T14:38:23;101037.78;;;-2.39;87.82
66762;BME280;53672;48.176;16.338;2022-12-18T14:43:25;101040.91;;;-2.44;87.04
66762;BME280;53672;48.176;16.338;2022-12-18T14:48:35;101043.34;;;-2.60;87.44
66762;BME280;53672;48.176;16.338;2022-12-18T14:53:41;101041.00;;;-2.63;88.74
66762;BME280;53672;48.176;16.338;2022-12-18T14:58:47;101051.50;;;-2.71;89.29
66762;BME280;53672;48.176;16.338;2022-12-18T15:03:48;101046.22;;;-2.71;90.08
66762;BME280;53672;48.176;16.338;2022-12-18T15:08:53;101057.63;;;-2.80;89.11
66762;BME280;53672;48.176;16.338;2022-12-18T15:13:57;101060.28;;;-2.80;90.47
66762;BME280;53672;48.176;16.338;2022-12-18T15:18:58;101051.38;;;-2.79;91.09
66762;BME280;53672;48.176;16.338;2022-12-18T15:24:02;101059.19;;;-2.87;89.97
66762;BME280;53672;48.176;16.338;2022-12-18T15:29:04;101064.19;;;-2.84;90.79
66762;BME280;53672;48.176;16.338;2022-12-18T15:34:13;101055.94;;;-2.72;91.58
66762;BME280;53672;48.176;16.338;2022-12-18T15:39:20;101052.59;;;-2.74;91.35
66762;BME280;53672;48.176;16.338;2022-12-18T15:44:22;101049.81;;;-2.72;91.25
66762;BME280;53672;48.176;16.338;2022-12-18T15:49:24;101062.72;;;-2.69;91.47
66762;BME280;53672;48.176;16.338;2022-12-18T15:54:30;101065.06;;;-2.66;91.01
66762;BME280;53672;48.176;16.338;2022-12-18T15:59:32;101069.19;;;-2.64;91.62
66762;BME280;53672;48.176;16.338;2022-12-18T16:04:32;101057.84;;;-2.64;90.57
66762;BME280;53672;48.176;16.338;2022-12-18T16:09:36;101071.63;;;-2.52;91.70
66762;BME280;53672;48.176;16.338;2022-12-18T16:14:37;101081.06;;;-2.50;91.54
66762;BME280;53672;48.176;16.338;2022-12-18T16:19:38;101075.22;;;-2.44;91.87
66762;BME280;53672;48.176;16.338;2022-12-18T16:24:41;101065.19;;;-2.40;91.78
66762;BME280;53672;48.176;16.338;2022-12-18T16:29:42;101071.31;;;-2.40;91.73
66762;BME280;53672;48.176;16.338;2022-12-18T16:34:43;101067.38;;;-2.36;90.69
66762;BME280;53672;48.176;16.338;2022-12-18T16:39:46;101066.09;;;-2.32;90.78
66762;BME280;53672;48.176;16.338;2022-12-18T16:44:47;101060.50;;;-2.29;91.15
66762;BME280;53672;48.176;16.338;2022-12-18T16:49:49;101062.19;;;-2.28;90.62
66762;BME280;53672;48.176;16.338;2022-12-18T16:54:52;101065.66;;;-2.27;90.44
66762;BME280;53672;48.176;16.338;2022-12-18T16:59:53;101066.63;;;-2.28;91.34
66762;BME280;53672;48.176;16.338;2022-12-18T17:04:56;101050.94;;;-2.30;91.18
66762;BME280;53672;48.176;16.338;2022-12-18T17:09:59;101055.22;;;-2.29;91.21
66762;BME280;53672;48.176;16.338;2022-12-18T17:15:00;101052.75;;;-2.30;90.58
66762;BME280;53672;48.176;16.338;2022-12-18T17:20:01;101043.25;;;-2.23;91.66
66762;BME280;53672;48.176;16.338;2022-12-18T17:25:04;101041.72;;;-2.26;91.83
66762;BME280;53672;48.176;16.338;2022-12-18T17:30:07;101044.22;;;-2.24;91.20
66762;BME280;53672;48.176;16.338;2022-12-18T17:35:09;101038.50;;;-2.20;91.46
66762;BME280;53672;48.176;16.338;2022-12-18T17:40:13;101049.13;;;-2.12;92.04
66762;BME280;53672;48.176;16.338;2022-12-18T17:45:13;101059.38;;;-2.09;91.39
66762;BME280;53672;48.176;16.338;2022-12-18T17:50:15;101056.47;;;-2.06;91.58
66762;BME280;53672;48.176;16.338;2022-12-18T17:55:17;101052.38;;;-2.00;92.00
66762;BME280;53672;48.176;16.338;2022-12-18T18:00:19;101035.25;;;-1.96;91.51
66762;BME280;53672;48.176;16.338;2022-12-18T18:05:20;101039.06;;;-1.90;92.19
66762;BME280;53672;48.176;16.338;2022-12-18T18:10:34;101044.75;;;-1.85;91.81
66762;BME280;53672;48.176;16.338;2022-12-18T18:15:40;101039.16;;;-1.82;91.60
66762;BME280;53672;48.176;16.338;2022-12-18T18:20:41;101038.38;;;-1.75;91.26
66762;BME280;53672;48.176;16.338;2022-12-18T18:25:43;101049.31;;;-1.70;91.02
66762;BME280;53672;48.176;16.338;2022-12-18T18:30:44;101040.41;;;-1.69;90.59
66762;BME280;53672;48.176;16.338;2022-12-18T18:35:45;101042.72;;;-1.66;90.52
66762;BME280;53672;48.176;16.338;2022-12-18T18:40:48;101035.63;;;-1.65;90.58
66762;BME280;53672;48.176;16.338;2022-12-18T18:45:58;101040.75;;;-1.64;90.78
66762;BME280;53672;48.176;16.338;2022-12-18T18:51:01;101052.34;;;-1.65;91.38
66762;BME280;53672;48.176;16.338;2022-12-18T18:56:03;101046.34;;;-1.67;90.78
66762;BME280;53672;48.176;16.338;2022-12-18T19:01:06;101048.16;;;-1.67;90.39
66762;BME280;53672;48.176;16.338;2022-12-18T19:06:10;101042.22;;;-1.69;90.39
66762;BME280;53672;48.176;16.338;2022-12-18T19:11:14;101046.81;;;-1.71;89.67
66762;BME280;53672;48.176;16.338;2022-12-18T19:16:16;101042.53;;;-1.72;90.49
66762;BME280;53672;48.176;16.338;2022-12-18T19:21:17;101040.63;;;-1.62;90.08
66762;BME280;53672;48.176;16.338;2022-12-18T19:26:20;101041.25;;;-1.68;90.28
66762;BME280;53672;48.176;16.338;2022-12-18T19:31:21;101040.09;;;-1.66;89.68
66762;BME280;53672;48.176;16.338;2022-12-18T19:36:24;101039.78;;;-1.63;90.28
66762;BME280;53672;48.176;16.338;2022-12-18T19:41:27;101044.91;;;-1.61;90.18
66762;BME280;53672;48.176;16.338;2022-12-18T19:46:28;101035.78;;;-1.67;91.03
66762;BME280;53672;48.176;16.338;2022-12-18T19:51:30;101037.44;;;-1.66;91.01
66762;BME280;53672;48.176;16.338;2022-12-18T19:56:34;101038.94;;;-1.63;91.36
66762;BME280;53672;48.176;16.338;2022-12-18T20:01:35;101042.63;;;-1.56;91.40
66762;BME280;53672;48.176;16.338;2022-12-18T20:06:45;101042.00;;;-1.50;91.19
66762;BME280;53672;48.176;16.338;2022-12-18T20:11:49;101044.50;;;-1.48;91.78
66762;BME280;53672;48.176;16.338;2022-12-18T20:16:50;101043.81;;;-1.50;91.33
66762;BME280;53672;48.176;16.338;2022-12-18T20:21:51;101029.31;;;-1.46;91.01
66762;BME280;53672;48.176;16.338;2022-12-18T20:26:54;101031.59;;;-1.51;91.07
66762;BME280;53672;48.176;16.338;2022-12-18T20:31:55;101026.31;;;-1.51;90.64
66762;BME280;53672;48.176;16.338;2022-12-18T20:36:56;101028.19;;;-1.44;89.87
66762;BME280;53672;48.176;16.338;2022-12-18T20:41:58;101025.03;;;-1.47;90.19
66762;BME280;53672;48.176;16.338;2022-12-18T20:46:59;101022.06;;;-1.44;90.38
66762;BME280;53672;48.176;16.338;2022-12-18T20:52:02;101018.94;;;-1.40;90.12
66762;BME280;53672;48.176;16.338;2022-12-18T20:57:04;101008.03;;;-1.37;90.64
66762;BME280;53672;48.176;16.338;2022-12-18T21:02:04;101003.06;;;-1.40;90.39
66762;BME280;53672;48.176;16.338;2022-12-18T21:07:05;100993.16;;;-1.38;89.93
66762;BME280;53672;48.176;16.338;2022-12-18T21:12:11;101001.94;;;-1.37;90.58
66762;BME280;53672;48.176;16.338;2022-12-18T21:17:13;100999.75;;;-1.42;90.43
66762;BME280;53672;48.176;16.338;2022-12-18T21:22:14;100991.16;;;-1.44;90.14
66762;BME280;53672;48.176;16.338;2022-12-18T21:27:16;100990.66;;;-1.47;91.31
66762;BME280;53672;48.176;16.338;2022-12-18T21:32:16;100981.69;;;-1.55;91.50
66762;BME280;53672;48.176;16.338;2022-12-18T21:37:17;100980.97;;;-1.65;91.33
66762;BME280;53672;48.176;16.338;2022-12-18T21:42:19;100980.06;;;-1.73;91.78
66762;BME280;53672;48.176;16.338;2022-12-18T21:47:19;100973.53;;;-1.87;92.29
66762;BME280;53672;48.176;16.338;2022-12-18T21:52:21;100971.34;;;-1.91;92.59
66762;BME280;53672;48.176;16.338;2022-12-18T21:57:23;100968.34;;;-1.96;92.68
66762;BME280;53672;48.176;16.338;2022-12-18T22:02:23;100977.88;;;-2.03;93.09
66762;BME280;53672;48.176;16.338;2022-12-18T22:07:24;100965.28;;;-2.10;93.26
66762;BME280;53672;48.176;16.338;2022-12-18T22:12:25;100958.97;;;-2.17;93.57
66762;BME280;53672;48.176;16.338;2022-12-18T22:17:26;100967.88;;;-2.18;94.01
66762;BME280;53672;48.176;16.338;2022-12-18T22:22:26;100964.56;;;-2.20;94.12
66762;BME280;53672;48.176;16.338;2022-12-18T22:27:28;100953.16;;;-2.20;93.99
66762;BME280;53672;48.176;16.338;2022-12-18T22:32:29;100958.75;;;-2.23;94.41
66762;BME280;53672;48.176;16.338;2022-12-18T22:37:30;100953.72;;;-2.09;95.14
66762;BME280;53672;48.176;16.338;2022-12-18T22:42:32;100944.09;;;-2.18;93.59
66762;BME280;53672;48.176;16.338;2022-12-18T22:47:32;100928.69;;;-2.22;93.92
66762;BME280;53672;48.176;16.338;2022-12-18T22:52:33;100921.78;;;-2.23;93.97
66762;BME280;53672;48.176;16.338;2022-12-18T22:57:35;100905.41;;;-2.27;94.27
66762;BME280;53672;48.176;16.338;2022-12-18T23:02:36;100910.19;;;-2.30;94.34
66762;BME280;53672;48.176;16.338;2022-12-18T23:07:36;100926.69;;;-2.28;94.79
66762;BME280;53672;48.176;16.338;2022-12-18T23:12:39;100916.28;;;-2.30;94.14
66762;BME280;53672;48.176;16.338;2022-12-18T23:17:39;100911.69;;;-2.28;94.15
66762;BME280;53672;48.176;16.338;2022-12-18T23:22:40;100905.09;;;-2.24;93.56
66762;BME280;53672;48.176;16.338;2022-12-18T23:27:41;100919.66;;;-2.20;93.83
66762;BME280;53672;48.176;16.338;2022-12-18T23:32:42;100903.50;;;-2.17;93.05
66762;BME280;53672;48.176;16.338;2022-12-18T23:37:42;100886.97;;;-2.19;92.96
66762;BME280;53672;48.176;16.338;2022-12-18T23:42:44;100899.88;;;-2.16;92.85
66762;BME280;53672;48.176;16.338;2022-12-18T23:47:45;100876.78;;;-2.14;92.96
66762;BME280;53672;48.176;16.338;2022-12-18T23:52:45;100876.47;;;-2.11;92.02
66762;BME280;53672;48.176;16.338;2022-12-18T23:57:47;100877.13;;;-2.09;91.65
